Phoenix, AZ

11:25 PM MST on August 22, 2014 (GMT -0700)
Glendale Municipal | Change Station
CLOSE
Current Station
Airport
Location: Glendale,
Elevation: 1066 ft
Nearby Weather Stations

Elev 1066 ft 33.53 °N, 112.29 °W | Updated 3 hours ago

Partly Cloudy
Partly Cloudy
88 °F
Feels Like 89 °F
N
5
Wind Variable Wind from South

Today
High -- | Low -- °F
--% Chance of Precip.
Yesterday
High -- | Low -- °F
Precip. -- in
5:55 AM 7:06 PM
Waning Crescent, 5% visible
Pressure 29.88 in
Visibility 20.0 miles
Clouds Few 12000 ft
Heat Index 89 °F
Dew Point 64 °F
Humidity 46%
Rainfall 0.00 in
Snow Depth Not available.
UV 0 out of 12
Pollen 4.30 out of 12
Ozone Good
PM2.5 Good
Flu Activity Not available.
METAR KGEU 230247Z 19004KT 20SM FEW120 31/18 A2988 RMK LAST

More Conditions Fewer Conditions

Pressure 29.88 in
Visibility 20.0 miles
Clouds Few 12000 ft
Heat Index 89 °F
Dew Point 64 °F
Humidity 46%
Rainfall 0.00 in
Snow Depth Not available.
UV 0 out of 12
Pollen 4.30 out of 12
Ozone Good
PM2.5 Good
Flu Activity Not available.
METAR KGEU 230247Z 19004KT 20SM FEW120 31/18 A2988 RMK LAST

More Conditions Fewer Conditions

10-Day Weather Forecast

Almanac

Astronomy

Aug. 22, 2014 Rise Set
Actual Time 5:55 AM MST 7:06 PM MST
Civil Twilight 5:29 AM MST 7:31 PM MST
Nautical Twilight 4:59 AM MST 8:02 PM MST
Astronomical Twilight 4:27 AM MST 8:34 PM MST
Moon 3:25 AM MST (8/22) 5:14 PM MST (8/22)
Length of Visible Light 14h 02m
Length of Day
13h 10m
Tomorrow will be 1m 55s shorter.
Waning Crescent, 5% of the Moon is Illuminated
Aug 23
Waning Crescent
Aug 25
New
Sep 2
First Quarter
Sep 8
Full
Sep 15
Last Quarter

Community

WunderPhotos

Upload Photos

1,746,371 photos uploaded!

WunderBlogs® & News

By Dr. Jeff Masters
Director of Meteorology, Weather Underground
By Kari Strenfel
Meteorologist, Weather Underground
By Christopher C. Burt
Weather Historian, Weather Underground
August 23, 2014
August 23, 2014
August 22, 2014

Nearby

Air Quality

  Air Quality AQ Index Pollutant
Yesterday Good
OZONE
Yesterday Good
PM10
Current Good
OZONE
Current Good
PM2.5
Friday Moderate
OZONE
Friday Good
PM10
Friday Good
CO
Saturday Moderate
OZONE
Saturday Good
PM10
Saturday Good
CO
Sunday Moderate
OZONE
Sunday Good
PM10
Sunday Good
CO

Snow Depth

Station Depth Elevation
Workman Creek 1 in 6900 ft
Promontory 0 in 7930 ft
White Horse Lake 0 in 7180 ft
Snowslide Canyon 1 in 9730 ft
Maverick Fork 0 in 9200 ft

Earthquake Activity

City Distance Mag. Time & Date
No recent earthquake activity has been reported nearby.
Minimum magnitude displayed is 2.5.

Coastal Water Temperatures

Place Temperature
No Stations Reporting

Nearby Weather Stations